Time;durP1;ratioP1;P1;durP2;ratioP2;P2;SDS_P1;SDS_P2;PMS_P1;PMS_P2;Temp;Humidity;BMP_temperature;BMP_pressure;BME280_temperature;BME280_humidity;BME280_pressure;Samples;Min_cycle;Max_cycle;Signal;HPM_P1;HPM_P2
2023/05/16 00:00:52;;;;;;;4.80;4.40;;;;;;;;;;5022549;28;20121;-47
2023/05/16 00:03:18;;;;;;;6.30;4.82;;;;;;;;;;5020822;28;20041;-42
2023/05/16 00:05:44;;;;;;;7.00;4.22;;;;;;;;;;5023565;28;20496;-42
2023/05/16 00:08:10;;;;;;;6.40;4.30;;;;;;;;;;5021536;28;20041;-42
2023/05/16 00:10:36;;;;;;;8.52;4.63;;;;;;;;;;5021805;28;20117;-44
2023/05/16 00:13:02;;;;;;;4.47;4.07;;;;;;;;;;5019649;28;20029;-40
2023/05/16 00:15:28;;;;;;;5.50;4.20;;;;;;;;;;5025219;28;20021;-41
2023/05/16 00:17:57;;;;;;;7.53;4.72;;;;;;;;;;5022821;28;20040;-41
2023/05/16 00:20:23;;;;;;;4.13;3.83;;;;;;;;;;5024987;28;20056;-41
2023/05/16 00:22:49;;;;;;;6.07;4.15;;;;;;;;;;5020735;28;20371;-41
2023/05/16 00:25:15;;;;;;;4.53;4.18;;;;;;;;;;5022554;28;20448;-41
2023/05/16 00:27:40;;;;;;;7.60;4.18;;;;;;;;;;5023874;28;20042;-41
2023/05/16 00:30:06;;;;;;;6.03;4.45;;;;;;;;;;5023396;28;20029;-42
2023/05/16 00:32:32;;;;;;;4.53;3.97;;;;;;;;;;5022409;28;20042;-42
2023/05/16 00:34:57;;;;;;;7.63;4.20;;;;;;;;;;5024292;28;20071;-41
2023/05/16 00:37:22;;;;;;;5.03;4.20;;;;;;;;;;5022090;28;20048;-41
2023/05/16 00:39:48;;;;;;;4.20;3.90;;;;;;;;;;5021036;28;20381;-42
2023/05/16 00:42:14;;;;;;;8.85;4.30;;;;;;;;;;5020448;28;20041;-40
2023/05/16 00:44:40;;;;;;;5.00;4.53;;;;;;;;;;5019355;28;20041;-42
2023/05/16 00:47:05;;;;;;;4.78;4.22;;;;;;;;;;5018004;28;20069;-42
2023/05/16 00:49:31;;;;;;;7.05;4.40;;;;;;;;;;5019421;28;20470;-47
2023/05/16 00:51:57;;;;;;;7.13;4.88;;;;;;;;;;5020885;28;20079;-46
2023/05/16 00:54:25;;;;;;;4.80;4.40;;;;;;;;;;5025357;28;20029;-42
2023/05/16 00:56:51;;;;;;;4.70;4.30;;;;;;;;;;5025378;28;20033;-41
2023/05/16 00:59:17;;;;;;;6.95;4.10;;;;;;;;;;5022588;28;20120;-41
2023/05/16 01:01:45;;;;;;;6.07;4.50;;;;;;;;;;5025257;28;20076;-43
2023/05/16 01:04:12;;;;;;;5.13;4.60;;;;;;;;;;5024527;28;20057;-44
2023/05/16 01:06:37;;;;;;;7.40;4.53;;;;;;;;;;5025019;28;20496;-42
2023/05/16 01:09:04;;;;;;;4.60;4.20;;;;;;;;;;5019196;28;20057;-42
2023/05/16 01:11:37;;;;;;;4.70;4.30;;;;;;;;;;5023563;28;20156;-41
2023/05/16 01:14:09;;;;;;;5.13;4.63;;;;;;;;;;5021735;28;20090;-43
2023/05/16 01:17:10;;;;;;;5.67;4.30;;;;;;;;;;5024203;28;20037;-42
2023/05/16 01:20:01;;;;;;;5.07;4.55;;;;;;;;;;5020990;28;20458;-42
2023/05/16 01:22:51;;;;;;;5.18;4.40;;;;;;;;;;5023570;28;20038;-42
2023/05/16 01:25:31;;;;;;;6.68;4.53;;;;;;;;;;5025470;28;20076;-45
2023/05/16 01:27:57;;;;;;;4.68;4.28;;;;;;;;;;5027208;28;20028;-41
2023/05/16 01:30:22;;;;;;;4.65;4.13;;;;;;;;;;5024501;28;20029;-43
2023/05/16 01:32:48;;;;;;;4.70;4.30;;;;;;;;;;5021842;28;20014;-43
2023/05/16 01:35:15;;;;;;;5.40;4.15;;;;;;;;;;5025090;28;20041;-42
2023/05/16 01:37:50;;;;;;;8.40;4.50;;;;;;;;;;5021769;28;20572;-41
2023/05/16 01:40:25;;;;;;;4.75;4.35;;;;;;;;;;5021810;28;20033;-51
2023/05/16 01:42:54;;;;;;;4.72;4.30;;;;;;;;;;5023147;28;20063;-43
2023/05/16 01:45:25;;;;;;;7.97;4.63;;;;;;;;;;5023402;28;20057;-41
2023/05/16 01:48:03;;;;;;;4.90;4.50;;;;;;;;;;5021229;28;20100;-43
2023/05/16 01:50:31;;;;;;;4.85;4.30;;;;;;;;;;5021924;28;23085;-43
2023/05/16 01:53:05;;;;;;;5.55;4.38;;;;;;;;;;5021586;28;20034;-41
2023/05/16 01:55:45;;;;;;;5.75;4.80;;;;;;;;;;5021179;28;20549;-41
2023/05/16 01:58:13;;;;;;;4.68;4.28;;;;;;;;;;5022176;28;20096;-47
2023/05/16 02:00:39;;;;;;;7.05;4.63;;;;;;;;;;5023569;28;20049;-42
2023/05/16 02:03:05;;;;;;;4.68;4.20;;;;;;;;;;5023421;28;20092;-44
2023/05/16 02:05:31;;;;;;;5.20;4.45;;;;;;;;;;5023884;28;20037;-45
2023/05/16 02:07:57;;;;;;;4.88;4.40;;;;;;;;;;5023008;28;20025;-41
2023/05/16 02:10:23;;;;;;;5.40;4.40;;;;;;;;;;5020995;28;20586;-41
2023/05/16 02:12:49;;;;;;;10.77;4.38;;;;;;;;;;5020910;28;20046;-43
2023/05/16 02:15:15;;;;;;;9.60;4.90;;;;;;;;;;5024847;28;20033;-42
2023/05/16 02:17:40;;;;;;;5.15;4.60;;;;;;;;;;5021546;28;20037;-41
2023/05/16 02:20:09;;;;;;;5.07;4.57;;;;;;;;;;5020814;28;20030;-42
2023/05/16 02:22:35;;;;;;;4.65;4.32;;;;;;;;;;5022186;28;20033;-46
2023/05/16 02:25:02;;;;;;;4.68;4.28;;;;;;;;;;5021126;28;20071;-45
2023/05/16 02:27:28;;;;;;;5.05;4.20;;;;;;;;;;5022857;28;20042;-48
2023/05/16 02:29:53;;;;;;;4.93;4.53;;;;;;;;;;5021140;28;20030;-45
2023/05/16 02:32:18;;;;;;;5.40;4.30;;;;;;;;;;5023710;28;20418;-44
2023/05/16 02:34:44;;;;;;;4.05;3.80;;;;;;;;;;5020354;28;20033;-41
2023/05/16 02:37:09;;;;;;;4.88;4.47;;;;;;;;;;5024175;28;20044;-41
2023/05/16 02:39:34;;;;;;;4.85;4.38;;;;;;;;;;5020491;28;20034;-43
2023/05/16 02:42:00;;;;;;;4.57;4.18;;;;;;;;;;5023701;28;20063;-41
2023/05/16 02:44:25;;;;;;;5.20;4.40;;;;;;;;;;5023658;28;20033;-44
2023/05/16 02:46:51;;;;;;;5.03;4.03;;;;;;;;;;5024405;28;20068;-44
2023/05/16 02:49:16;;;;;;;4.72;4.18;;;;;;;;;;5020150;28;20088;-49
2023/05/16 02:51:42;;;;;;;5.72;5.05;;;;;;;;;;5020833;28;20068;-42
2023/05/16 02:54:08;;;;;;;13.15;3.92;;;;;;;;;;5021010;28;20051;-42
2023/05/16 02:56:34;;;;;;;4.80;4.18;;;;;;;;;;5023106;28;20044;-41
2023/05/16 02:59:00;;;;;;;6.07;4.30;;;;;;;;;;5022308;28;20077;-44
2023/05/16 03:01:25;;;;;;;4.07;3.78;;;;;;;;;;5023402;28;20072;-45
2023/05/16 03:03:50;;;;;;;7.93;4.32;;;;;;;;;;5021772;28;20033;-45
2023/05/16 03:06:16;;;;;;;4.55;4.13;;;;;;;;;;5020632;28;20391;-41
2023/05/16 03:08:41;;;;;;;5.13;4.38;;;;;;;;;;5022231;28;20160;-41
2023/05/16 03:11:07;;;;;;;5.20;3.70;;;;;;;;;;5020339;28;20521;-43
2023/05/16 03:13:32;;;;;;;4.38;3.97;;;;;;;;;;5017954;28;20083;-41
2023/05/16 03:15:58;;;;;;;6.40;4.07;;;;;;;;;;5024646;28;20045;-40
2023/05/16 03:18:24;;;;;;;4.78;4.30;;;;;;;;;;5021888;28;20029;-42
2023/05/16 03:20:51;;;;;;;4.20;3.80;;;;;;;;;;5019460;28;20056;-42
2023/05/16 03:23:17;;;;;;;4.78;4.38;;;;;;;;;;5023103;28;20026;-43
2023/05/16 03:25:45;;;;;;;5.20;4.20;;;;;;;;;;5024996;28;20502;-44
2023/05/16 03:28:10;;;;;;;4.40;4.10;;;;;;;;;;5018741;28;20129;-44
2023/05/16 03:30:36;;;;;;;5.18;4.10;;;;;;;;;;5020155;28;20045;-41
2023/05/16 03:33:03;;;;;;;4.45;4.00;;;;;;;;;;5022344;28;20036;-42
2023/05/16 03:35:30;;;;;;;5.97;4.25;;;;;;;;;;5023434;28;20030;-43
2023/05/16 03:37:55;;;;;;;4.10;3.80;;;;;;;;;;5022057;28;20021;-41
2023/05/16 03:40:21;;;;;;;4.78;3.97;;;;;;;;;;5021429;28;20366;-42
2023/05/16 03:42:46;;;;;;;4.38;4.07;;;;;;;;;;5024773;28;20030;-41
2023/05/16 03:45:12;;;;;;;6.90;4.40;;;;;;;;;;5019371;28;20017;-44
2023/05/16 03:47:37;;;;;;;6.03;3.78;;;;;;;;;;5023335;28;20033;-41
2023/05/16 03:50:04;;;;;;;5.20;3.90;;;;;;;;;;5021260;28;20030;-41
2023/05/16 03:52:29;;;;;;;5.22;4.10;;;;;;;;;;5021847;28;20038;-41
2023/05/16 03:54:54;;;;;;;4.30;4.00;;;;;;;;;;5020362;28;20375;-41
2023/05/16 03:57:20;;;;;;;5.38;4.00;;;;;;;;;;5019654;28;20109;-41
2023/05/16 03:59:45;;;;;;;5.25;3.72;;;;;;;;;;5022060;28;20576;-44
2023/05/16 04:02:11;;;;;;;6.57;4.32;;;;;;;;;;5020955;28;20041;-41
2023/05/16 04:04:36;;;;;;;4.68;4.07;;;;;;;;;;5023701;28;20037;-47
2023/05/16 04:07:02;;;;;;;4.20;3.80;;;;;;;;;;5018940;28;20137;-43
2023/05/16 04:09:27;;;;;;;6.38;4.55;;;;;;;;;;5022287;28;20030;-40
2023/05/16 04:11:55;;;;;;;4.78;4.38;;;;;;;;;;5015655;28;20618;-40
2023/05/16 04:14:20;;;;;;;4.75;4.28;;;;;;;;;;5020278;28;20091;-44
2023/05/16 04:16:45;;;;;;;4.68;4.28;;;;;;;;;;5021825;28;20461;-45
2023/05/16 04:19:11;;;;;;;5.30;4.80;;;;;;;;;;5019283;28;20072;-42
2023/05/16 04:21:36;;;;;;;4.25;3.88;;;;;;;;;;5023197;28;20104;-41
2023/05/16 04:24:01;;;;;;;4.75;4.35;;;;;;;;;;5023151;28;20037;-45
2023/05/16 04:26:27;;;;;;;6.72;4.57;;;;;;;;;;5016768;28;20536;-42
2023/05/16 04:28:52;;;;;;;4.57;4.18;;;;;;;;;;5024046;28;20026;-46
2023/05/16 04:31:18;;;;;;;5.03;4.55;;;;;;;;;;5021896;28;20079;-43
2023/05/16 04:33:43;;;;;;;4.68;4.28;;;;;;;;;;5025035;28;20025;-44
2023/05/16 04:36:08;;;;;;;7.53;4.60;;;;;;;;;;5022934;28;20054;-43
2023/05/16 04:38:34;;;;;;;5.05;4.65;;;;;;;;;;5024601;28;20670;-43
2023/05/16 04:41:00;;;;;;;4.90;4.30;;;;;;;;;;5025702;28;20056;-42
2023/05/16 04:43:26;;;;;;;4.85;4.40;;;;;;;;;;5022684;28;20025;-43
2023/05/16 04:45:52;;;;;;;6.53;4.78;;;;;;;;;;5023761;28;20142;-44
2023/05/16 04:48:18;;;;;;;8.25;4.97;;;;;;;;;;5021459;28;20025;-41
2023/05/16 04:50:43;;;;;;;5.03;4.60;;;;;;;;;;5018932;28;20132;-44
2023/05/16 04:53:09;;;;;;;6.32;4.93;;;;;;;;;;5021101;28;20045;-41
2023/05/16 04:55:34;;;;;;;6.65;4.68;;;;;;;;;;5028680;28;20441;-41
2023/05/16 04:57:59;;;;;;;5.07;4.68;;;;;;;;;;5022856;28;20053;-43
2023/05/16 05:00:25;;;;;;;6.93;4.60;;;;;;;;;;5023835;28;20117;-46
2023/05/16 05:02:51;;;;;;;5.35;4.75;;;;;;;;;;5024657;28;20025;-45
2023/05/16 05:05:16;;;;;;;5.15;4.63;;;;;;;;;;5022952;28;20079;-40
2023/05/16 05:07:42;;;;;;;5.13;4.70;;;;;;;;;;5017320;28;20026;-47
2023/05/16 05:10:08;;;;;;;4.93;4.28;;;;;;;;;;5023821;28;20379;-42
2023/05/16 05:12:34;;;;;;;6.63;5.55;;;;;;;;;;5018203;28;20042;-41
2023/05/16 05:15:00;;;;;;;5.35;4.85;;;;;;;;;;5025781;28;20025;-45
2023/05/16 05:17:25;;;;;;;7.22;6.53;;;;;;;;;;5021291;28;21128;-42
2023/05/16 05:19:50;;;;;;;4.65;4.25;;;;;;;;;;5022243;28;20386;-48
2023/05/16 05:22:16;;;;;;;5.32;4.82;;;;;;;;;;5023347;28;20038;-43
2023/05/16 05:24:41;;;;;;;5.25;4.75;;;;;;;;;;5026071;28;20041;-46
2023/05/16 05:27:07;;;;;;;5.18;4.75;;;;;;;;;;5026963;28;20041;-41
2023/05/16 05:29:32;;;;;;;11.25;5.22;;;;;;;;;;5023382;28;20087;-43
2023/05/16 05:31:58;;;;;;;9.60;4.90;;;;;;;;;;5020864;28;20037;-47
2023/05/16 05:34:23;;;;;;;8.60;4.80;;;;;;;;;;5018839;28;20160;-46
2023/05/16 05:36:48;;;;;;;5.07;4.63;;;;;;;;;;5021996;28;20125;-48
2023/05/16 05:39:14;;;;;;;5.57;5.05;;;;;;;;;;5022454;28;20394;-48
2023/05/16 05:41:39;;;;;;;5.28;4.78;;;;;;;;;;5023469;28;20179;-42
2023/05/16 05:44:05;;;;;;;6.68;5.18;;;;;;;;;;5023526;28;20104;-47
2023/05/16 05:46:32;;;;;;;6.20;5.20;;;;;;;;;;5019909;28;20046;-42
2023/05/16 05:48:58;;;;;;;5.60;4.60;;;;;;;;;;5021887;28;20503;-41
2023/05/16 05:51:23;;;;;;;13.20;8.55;;;;;;;;;;5023763;28;20132;-49
2023/05/16 05:53:49;;;;;;;5.40;4.90;;;;;;;;;;5025330;28;20455;-46
2023/05/16 05:56:14;;;;;;;5.85;4.80;;;;;;;;;;5020653;28;20658;-44
2023/05/16 05:58:43;;;;;;;7.88;5.40;;;;;;;;;;5022998;28;20041;-42
2023/05/16 06:01:10;;;;;;;4.60;4.20;;;;;;;;;;5023283;28;20060;-46
2023/05/16 06:03:35;;;;;;;5.35;4.78;;;;;;;;;;5021724;28;20029;-44
2023/05/16 06:06:01;;;;;;;5.53;5.03;;;;;;;;;;5024047;28;20041;-48
2023/05/16 06:08:26;;;;;;;11.45;4.57;;;;;;;;;;5018783;28;20026;-42
2023/05/16 06:10:52;;;;;;;6.40;4.68;;;;;;;;;;5022736;28;20062;-44
2023/05/16 06:13:17;;;;;;;8.77;4.72;;;;;;;;;;5023467;28;20124;-48
2023/05/16 06:15:42;;;;;;;6.28;4.90;;;;;;;;;;5017973;28;20572;-48
2023/05/16 06:18:08;;;;;;;7.35;4.68;;;;;;;;;;5022042;28;20079;-48
2023/05/16 06:20:33;;;;;;;5.05;4.55;;;;;;;;;;5017684;28;20037;-41
2023/05/16 06:23:00;;;;;;;8.55;5.00;;;;;;;;;;5022513;28;20071;-44
2023/05/16 06:25:25;;;;;;;6.45;5.13;;;;;;;;;;5020307;28;20037;-47
2023/05/16 06:27:50;;;;;;;5.28;4.78;;;;;;;;;;5019106;28;20033;-47
2023/05/16 06:30:16;;;;;;;6.40;4.70;;;;;;;;;;5025311;28;20040;-44
2023/05/16 06:32:41;;;;;;;5.35;4.60;;;;;;;;;;5019766;28;20051;-44
2023/05/16 06:35:08;;;;;;;6.18;4.95;;;;;;;;;;5024042;28;20187;-45
2023/05/16 06:37:33;;;;;;;7.68;5.10;;;;;;;;;;5019154;28;20119;-46
2023/05/16 06:39:59;;;;;;;5.68;5.18;;;;;;;;;;5022335;28;20080;-46
2023/05/16 06:42:24;;;;;;;9.18;5.25;;;;;;;;;;5022636;28;20038;-42
2023/05/16 06:44:50;;;;;;;5.05;4.55;;;;;;;;;;5022925;28;20036;-50
2023/05/16 06:47:15;;;;;;;5.60;4.63;;;;;;;;;;5024598;28;20076;-43
2023/05/16 06:49:40;;;;;;;9.63;4.63;;;;;;;;;;5023445;28;20618;-42
2023/05/16 06:52:06;;;;;;;8.68;5.07;;;;;;;;;;5021237;28;20144;-42
2023/05/16 06:54:31;;;;;;;5.90;5.15;;;;;;;;;;5022364;28;20033;-41
2023/05/16 06:56:56;;;;;;;5.82;4.78;;;;;;;;;;5022597;28;20079;-41
2023/05/16 06:59:22;;;;;;;6.05;4.50;;;;;;;;;;5018623;28;20053;-41
2023/05/16 07:01:48;;;;;;;7.68;4.93;;;;;;;;;;5019607;28;20038;-41
2023/05/16 07:04:14;;;;;;;5.32;4.88;;;;;;;;;;5023972;28;20021;-41
2023/05/16 07:06:39;;;;;;;10.65;4.63;;;;;;;;;;5025555;28;20041;-40
2023/05/16 07:09:05;;;;;;;6.32;5.00;;;;;;;;;;5024140;28;20479;-41
2023/05/16 07:11:30;;;;;;;6.00;5.18;;;;;;;;;;5017535;28;20675;-41
2023/05/16 07:13:55;;;;;;;7.32;4.53;;;;;;;;;;5021127;28;20057;-42
2023/05/16 07:16:21;;;;;;;7.15;5.22;;;;;;;;;;5019181;28;20046;-42
2023/05/16 07:18:46;;;;;;;10.38;5.38;;;;;;;;;;5025686;28;20032;-40
2023/05/16 07:21:11;;;;;;;7.63;4.20;;;;;;;;;;5020570;28;20042;-42
2023/05/16 07:23:37;;;;;;;8.07;5.13;;;;;;;;;;5021511;28;20033;-40
2023/05/16 07:26:02;;;;;;;7.45;5.57;;;;;;;;;;5022106;28;20045;-40
2023/05/16 07:28:28;;;;;;;5.30;4.70;;;;;;;;;;5023652;28;20017;-40
2023/05/16 07:30:54;;;;;;;10.10;5.28;;;;;;;;;;5023333;28;20045;-42
2023/05/16 07:33:19;;;;;;;11.23;4.85;;;;;;;;;;5021388;28;20051;-41
2023/05/16 07:35:45;;;;;;;4.75;4.35;;;;;;;;;;5024464;28;20045;-47
2023/05/16 07:38:10;;;;;;;6.55;5.43;;;;;;;;;;5021061;28;20021;-41
2023/05/16 07:40:36;;;;;;;5.57;4.40;;;;;;;;;;5022916;28;20072;-41
2023/05/16 07:43:01;;;;;;;6.20;5.18;;;;;;;;;;5016900;28;20033;-40
2023/05/16 07:45:27;;;;;;;6.03;4.63;;;;;;;;;;5022253;28;20026;-43
2023/05/16 07:47:52;;;;;;;7.32;4.70;;;;;;;;;;5017139;28;20057;-40
2023/05/16 07:50:18;;;;;;;5.82;4.60;;;;;;;;;;5023526;28;20018;-41
2023/05/16 07:52:43;;;;;;;4.63;4.15;;;;;;;;;;5019989;28;20060;-41
2023/05/16 07:55:09;;;;;;;8.55;4.70;;;;;;;;;;5022020;28;20033;-42
2023/05/16 07:57:34;;;;;;;6.03;5.35;;;;;;;;;;5023914;28;20044;-40
2023/05/16 08:00:00;;;;;;;8.20;4.80;;;;;;;;;;5024992;28;20049;-41
2023/05/16 08:02:29;;;;;;;7.22;4.57;;;;;;;;;;5020137;28;20103;-43
2023/05/16 08:04:56;;;;;;;3.80;3.40;;;;;;;;;;5027967;28;20018;-40
2023/05/16 08:07:22;;;;;;;6.90;4.65;;;;;;;;;;5028970;28;20421;-40
2023/05/16 08:09:48;;;;;;;5.78;4.05;;;;;;;;;;5023478;28;20080;-40
2023/05/16 08:12:13;;;;;;;10.00;4.30;;;;;;;;;;5025329;28;20041;-41
2023/05/16 08:14:39;;;;;;;9.60;4.30;;;;;;;;;;5024287;28;20025;-42
2023/05/16 08:17:04;;;;;;;11.82;4.90;;;;;;;;;;5025399;28;20045;-42
2023/05/16 08:19:31;;;;;;;6.85;4.20;;;;;;;;;;5024044;28;20850;-41
2023/05/16 08:21:57;;;;;;;12.07;4.47;;;;;;;;;;5025283;28;20041;-43
2023/05/16 08:24:22;;;;;;;12.57;4.43;;;;;;;;;;5027340;28;20517;-42
2023/05/16 08:26:47;;;;;;;5.25;4.45;;;;;;;;;;5026716;28;20389;-41
2023/05/16 08:29:13;;;;;;;7.40;4.53;;;;;;;;;;5023225;28;20034;-42
2023/05/16 08:31:38;;;;;;;6.53;4.05;;;;;;;;;;5027735;28;20029;-42
2023/05/16 08:34:05;;;;;;;5.07;4.00;;;;;;;;;;5027346;28;20029;-41
2023/05/16 08:36:32;;;;;;;10.50;4.30;;;;;;;;;;5024421;28;20040;-41
2023/05/16 08:38:57;;;;;;;5.00;4.50;;;;;;;;;;5027101;28;20451;-43
2023/05/16 08:41:23;;;;;;;8.05;4.68;;;;;;;;;;5024906;28;20136;-41
2023/05/16 08:43:48;;;;;;;5.85;4.13;;;;;;;;;;5025472;28;20025;-41
2023/05/16 08:46:16;;;;;;;16.88;4.47;;;;;;;;;;5025729;28;20083;-41
2023/05/16 08:48:45;;;;;;;5.40;4.03;;;;;;;;;;5021065;28;20191;-42
2023/05/16 08:51:11;;;;;;;4.28;3.97;;;;;;;;;;5024615;28;20053;-42
2023/05/16 08:53:42;;;;;;;6.13;4.40;;;;;;;;;;5025871;28;20502;-41
2023/05/16 08:56:09;;;;;;;10.43;4.90;;;;;;;;;;5025188;28;20502;-43
2023/05/16 08:58:35;;;;;;;7.90;4.40;;;;;;;;;;5022903;28;20459;-43
2023/05/16 09:01:05;;;;;;;7.35;4.20;;;;;;;;;;5024140;28;20049;-41
2023/05/16 09:03:31;;;;;;;6.80;4.35;;;;;;;;;;5026124;28;20034;-43
2023/05/16 09:05:56;;;;;;;8.90;4.00;;;;;;;;;;5025912;28;20066;-41
2023/05/16 09:08:22;;;;;;;10.18;4.25;;;;;;;;;;5024835;28;20545;-41
2023/05/16 09:10:47;;;;;;;10.93;4.97;;;;;;;;;;5025228;28;20045;-41
2023/05/16 09:13:12;;;;;;;6.78;4.28;;;;;;;;;;5023206;28;20027;-42
2023/05/16 09:15:38;;;;;;;6.93;3.60;;;;;;;;;;5027568;28;20068;-41
2023/05/16 09:18:04;;;;;;;5.30;3.85;;;;;;;;;;5024635;28;20482;-42
2023/05/16 09:20:30;;;;;;;11.13;4.38;;;;;;;;;;5024682;28;20035;-41
2023/05/16 09:22:57;;;;;;;7.65;3.63;;;;;;;;;;5024001;28;20022;-41
2023/05/16 09:25:25;;;;;;;4.57;3.85;;;;;;;;;;5022125;28;20151;-42
2023/05/16 09:27:54;;;;;;;7.18;3.90;;;;;;;;;;5025967;28;20026;-42
2023/05/16 09:30:22;;;;;;;10.55;3.60;;;;;;;;;;5022573;28;20041;-41
2023/05/16 09:32:51;;;;;;;9.20;3.60;;;;;;;;;;5026850;28;20359;-42
2023/05/16 09:35:18;;;;;;;5.72;3.25;;;;;;;;;;5024445;28;20091;-39
2023/05/16 09:37:47;;;;;;;5.18;3.20;;;;;;;;;;5026550;28;20418;-40
2023/05/16 09:40:13;;;;;;;13.98;3.97;;;;;;;;;;5020949;28;20065;-41
2023/05/16 09:42:39;;;;;;;6.43;3.75;;;;;;;;;;5024882;28;20041;-42
2023/05/16 09:45:05;;;;;;;5.93;4.03;;;;;;;;;;5021046;28;20032;-45
2023/05/16 09:47:30;;;;;;;6.65;3.22;;;;;;;;;;5017889;28;20053;-43
2023/05/16 09:49:56;;;;;;;5.47;3.75;;;;;;;;;;5025308;28;20029;-43
2023/05/16 09:52:21;;;;;;;7.68;4.05;;;;;;;;;;5021192;28;20565;-41
2023/05/16 09:54:50;;;;;;;6.63;3.53;;;;;;;;;;5021408;28;20079;-43
2023/05/16 09:57:19;;;;;;;7.93;3.47;;;;;;;;;;5021941;28;20034;-42
2023/05/16 09:59:45;;;;;;;7.93;3.50;;;;;;;;;;5017351;28;20572;-46
2023/05/16 10:02:12;;;;;;;4.35;3.55;;;;;;;;;;5022957;28;20054;-42
2023/05/16 10:04:38;;;;;;;10.80;3.67;;;;;;;;;;5026058;28;20076;-41
2023/05/16 10:07:03;;;;;;;11.63;4.18;;;;;;;;;;5022076;28;20068;-40
2023/05/16 10:09:32;;;;;;;5.47;3.70;;;;;;;;;;5019968;28;20439;-43
2023/05/16 10:12:04;;;;;;;9.38;3.33;;;;;;;;;;5022332;28;20049;-41
2023/05/16 10:14:34;;;;;;;18.65;3.80;;;;;;;;;;5021020;28;20037;-41
2023/05/16 10:17:02;;;;;;;6.22;3.15;;;;;;;;;;5023647;28;20052;-41
2023/05/16 10:19:30;;;;;;;9.68;3.42;;;;;;;;;;5024198;28;20037;-47
2023/05/16 10:21:58;;;;;;;6.80;3.80;;;;;;;;;;5022989;28;20095;-41
2023/05/16 10:24:30;;;;;;;4.47;3.20;;;;;;;;;;5023298;28;20108;-41
2023/05/16 10:26:56;;;;;;;10.63;3.10;;;;;;;;;;5022464;28;20042;-43
2023/05/16 10:29:22;;;;;;;5.50;3.42;;;;;;;;;;5017162;28;20091;-41
2023/05/16 10:31:48;;;;;;;9.98;3.53;;;;;;;;;;5018286;28;20034;-41
2023/05/16 10:34:15;;;;;;;18.50;3.50;;;;;;;;;;5017555;28;20121;-42
2023/05/16 10:36:40;;;;;;;6.28;3.50;;;;;;;;;;5021578;28;20113;-43
2023/05/16 10:39:06;;;;;;;7.13;2.95;;;;;;;;;;5018982;28;20179;-45
2023/05/16 10:41:33;;;;;;;7.07;3.80;;;;;;;;;;5020454;28;22566;-42
2023/05/16 10:43:58;;;;;;;7.05;3.65;;;;;;;;;;5023274;28;20025;-43
2023/05/16 10:46:27;;;;;;;7.65;3.55;;;;;;;;;;5016905;28;20034;-48
2023/05/16 10:48:53;;;;;;;6.28;3.33;;;;;;;;;;5018256;28;20471;-48
2023/05/16 10:51:21;;;;;;;15.43;4.30;;;;;;;;;;5021580;28;20048;-44
2023/05/16 10:53:50;;;;;;;9.43;3.50;;;;;;;;;;5020262;28;20961;-46
2023/05/16 10:56:22;;;;;;;10.52;3.83;;;;;;;;;;5019859;28;20050;-44
2023/05/16 10:58:47;;;;;;;6.95;3.17;;;;;;;;;;5021909;28;20044;-43
2023/05/16 11:01:33;;;;;;;4.35;3.03;;;;;;;;;;5020522;28;20034;-43
2023/05/16 11:04:11;;;;;;;6.60;3.00;;;;;;;;;;5021914;28;20065;-42
2023/05/16 11:06:39;;;;;;;7.15;3.30;;;;;;;;;;5025661;28;20410;-42
2023/05/16 11:09:10;;;;;;;7.05;3.17;;;;;;;;;;5024111;28;20025;-42
2023/05/16 11:11:39;;;;;;;8.65;3.53;;;;;;;;;;5023225;28;20049;-43
2023/05/16 11:14:05;;;;;;;9.70;3.28;;;;;;;;;;5023047;28;20029;-41
2023/05/16 11:16:33;;;;;;;7.18;3.03;;;;;;;;;;5019154;28;20059;-42
2023/05/16 11:19:05;;;;;;;6.93;2.85;;;;;;;;;;5022165;28;20355;-41
2023/05/16 11:22:09;;;;;;;5.22;2.72;;;;;;;;;;5019880;28;20052;-41
2023/05/16 11:24:38;;;;;;;5.32;2.97;;;;;;;;;;5023325;28;20140;-42
2023/05/16 11:27:05;;;;;;;4.35;2.63;;;;;;;;;;5022228;28;20042;-43
2023/05/16 11:29:32;;;;;;;18.75;3.20;;;;;;;;;;5018935;28;20119;-42
2023/05/16 11:31:59;;;;;;;11.13;2.90;;;;;;;;;;5016104;28;20038;-41
2023/05/16 11:34:25;;;;;;;13.57;2.83;;;;;;;;;;5019234;28;20103;-42
2023/05/16 11:36:51;;;;;;;9.10;3.00;;;;;;;;;;5019741;28;20034;-42
2023/05/16 11:39:18;;;;;;;7.35;2.95;;;;;;;;;;5015738;28;20034;-44
2023/05/16 11:41:43;;;;;;;7.60;2.78;;;;;;;;;;5020294;28;20041;-42
2023/05/16 11:44:11;;;;;;;6.65;2.70;;;;;;;;;;5023525;28;20025;-44
2023/05/16 11:46:39;;;;;;;7.43;3.05;;;;;;;;;;5017206;28;20107;-41
2023/05/16 11:49:06;;;;;;;8.95;2.85;;;;;;;;;;5024222;28;20029;-47
2023/05/16 11:51:31;;;;;;;2.85;2.17;;;;;;;;;;5021200;28;20045;-41
2023/05/16 11:53:57;;;;;;;9.75;2.58;;;;;;;;;;5018810;28;20028;-40
2023/05/16 11:56:22;;;;;;;5.68;2.30;;;;;;;;;;5023510;28;20128;-43
2023/05/16 11:58:49;;;;;;;8.00;2.50;;;;;;;;;;5025220;28;20045;-44
2023/05/16 12:01:15;;;;;;;6.80;3.28;;;;;;;;;;5022607;28;20134;-43
2023/05/16 12:03:40;;;;;;;9.75;2.50;;;;;;;;;;5019916;28;20534;-43
2023/05/16 12:06:05;;;;;;;5.78;3.10;;;;;;;;;;5023455;28;20040;-41
2023/05/16 12:08:31;;;;;;;5.18;2.55;;;;;;;;;;5022315;28;20029;-43
2023/05/16 12:10:57;;;;;;;15.02;3.38;;;;;;;;;;5021847;28;20030;-42
2023/05/16 12:13:23;;;;;;;8.02;3.05;;;;;;;;;;5026660;28;20036;-43
2023/05/16 12:15:50;;;;;;;10.02;3.03;;;;;;;;;;5019436;28;20133;-43
2023/05/16 12:18:17;;;;;;;4.88;2.55;;;;;;;;;;5021578;28;20031;-44
2023/05/16 12:20:43;;;;;;;11.23;2.80;;;;;;;;;;5023343;28;20510;-41
2023/05/16 12:23:13;;;;;;;5.15;2.83;;;;;;;;;;5021949;28;20040;-47
2023/05/16 12:25:44;;;;;;;18.77;4.22;;;;;;;;;;5018391;28;20042;-41
2023/05/16 12:28:12;;;;;;;12.13;3.05;;;;;;;;;;5022259;28;20038;-40
2023/05/16 12:30:40;;;;;;;13.80;4.30;;;;;;;;;;5022616;28;20045;-41
2023/05/16 12:33:11;;;;;;;11.98;3.33;;;;;;;;;;5021789;28;20092;-42
2023/05/16 12:35:39;;;;;;;14.95;2.90;;;;;;;;;;5019191;28;20514;-41
2023/05/16 12:38:07;;;;;;;15.95;3.92;;;;;;;;;;5022151;28;20037;-41
2023/05/16 12:40:33;;;;;;;14.13;3.33;;;;;;;;;;5017704;28;20025;-44
2023/05/16 12:42:58;;;;;;;10.43;2.92;;;;;;;;;;5019430;28;20028;-43
2023/05/16 12:45:28;;;;;;;19.00;3.22;;;;;;;;;;5017736;28;20043;-40
2023/05/16 12:47:53;;;;;;;5.00;2.63;;;;;;;;;;5020654;28;20490;-41
2023/05/16 12:50:19;;;;;;;9.90;3.38;;;;;;;;;;5018677;28;20026;-40
2023/05/16 12:52:58;;;;;;;22.25;3.70;;;;;;;;;;5025181;28;20030;-44
2023/05/16 12:55:25;;;;;;;5.82;3.10;;;;;;;;;;5024801;28;20048;-44
2023/05/16 12:57:50;;;;;;;5.88;3.25;;;;;;;;;;5022225;28;20100;-42
2023/05/16 13:00:19;;;;;;;2.50;2.30;;;;;;;;;;5026522;28;20132;-45
2023/05/16 13:02:46;;;;;;;5.20;3.05;;;;;;;;;;5025748;28;20083;-42
2023/05/16 13:05:12;;;;;;;12.60;3.55;;;;;;;;;;5022756;28;20053;-45
2023/05/16 13:07:39;;;;;;;13.52;3.08;;;;;;;;;;5021322;28;23574;-42
2023/05/16 13:10:06;;;;;;;10.45;3.38;;;;;;;;;;5023193;28;20054;-43
2023/05/16 13:12:32;;;;;;;5.40;3.08;;;;;;;;;;5021997;28;20490;-41
2023/05/16 13:14:57;;;;;;;9.95;3.58;;;;;;;;;;5023969;28;20082;-43
2023/05/16 13:17:22;;;;;;;7.88;3.28;;;;;;;;;;5025192;28;20081;-44
2023/05/16 13:19:48;;;;;;;14.88;3.40;;;;;;;;;;5022546;28;20379;-43
2023/05/16 13:22:14;;;;;;;5.97;2.97;;;;;;;;;;5023823;28;20083;-43
2023/05/16 13:24:39;;;;;;;8.02;3.25;;;;;;;;;;5022582;28;20073;-44
2023/05/16 13:27:05;;;;;;;10.30;2.92;;;;;;;;;;5020669;28;20069;-41
2023/05/16 13:29:31;;;;;;;14.65;3.25;;;;;;;;;;5022530;28;20028;-43
2023/05/16 13:31:56;;;;;;;7.22;3.13;;;;;;;;;;5026102;28;20486;-44
2023/05/16 13:34:22;;;;;;;9.65;3.53;;;;;;;;;;5021551;28;20045;-46
2023/05/16 13:36:48;;;;;;;5.95;3.20;;;;;;;;;;5025547;28;20627;-43
2023/05/16 13:39:13;;;;;;;6.60;3.15;;;;;;;;;;5025222;28;20493;-41
2023/05/16 13:41:39;;;;;;;14.35;3.05;;;;;;;;;;5024795;28;20046;-41
2023/05/16 13:44:05;;;;;;;7.72;3.20;;;;;;;;;;5026716;28;20025;-44
2023/05/16 13:46:31;;;;;;;10.68;2.88;;;;;;;;;;5021879;28;20060;-45
2023/05/16 13:48:56;;;;;;;8.05;3.13;;;;;;;;;;5024409;28;20034;-45
2023/05/16 13:51:22;;;;;;;12.68;3.15;;;;;;;;;;5024062;28;20061;-41
2023/05/16 13:53:47;;;;;;;13.52;3.33;;;;;;;;;;5026116;28;20026;-41
2023/05/16 13:56:13;;;;;;;11.27;3.05;;;;;;;;;;5025848;28;20418;-41
2023/05/16 13:58:38;;;;;;;10.45;2.88;;;;;;;;;;5019683;28;20528;-43
2023/05/16 14:01:03;;;;;;;4.90;3.53;;;;;;;;;;5021980;28;20445;-40
2023/05/16 14:03:29;;;;;;;11.20;3.38;;;;;;;;;;5023197;28;20044;-42
2023/05/16 14:05:54;;;;;;;14.85;4.20;;;;;;;;;;5024527;28;20041;-43
2023/05/16 14:08:19;;;;;;;7.03;2.83;;;;;;;;;;5024758;28;20029;-43
2023/05/16 14:10:45;;;;;;;7.85;2.47;;;;;;;;;;5023735;28;20048;-43
2023/05/16 14:13:11;;;;;;;7.05;3.22;;;;;;;;;;5021058;28;20108;-43
2023/05/16 14:15:36;;;;;;;11.30;2.88;;;;;;;;;;5027704;28;20057;-44
2023/05/16 14:18:03;;;;;;;4.65;3.15;;;;;;;;;;5019702;28;20037;-41
2023/05/16 14:20:28;;;;;;;7.95;3.20;;;;;;;;;;5027003;28;20033;-42
2023/05/16 14:22:54;;;;;;;11.35;3.38;;;;;;;;;;5021283;28;20032;-43
2023/05/16 14:25:19;;;;;;;4.93;3.20;;;;;;;;;;5026443;28;20025;-44
2023/05/16 14:27:44;;;;;;;13.38;3.17;;;;;;;;;;5018520;28;20049;-40
2023/05/16 14:30:10;;;;;;;12.32;2.67;;;;;;;;;;5027769;28;20040;-45
2023/05/16 14:32:36;;;;;;;8.85;3.10;;;;;;;;;;5023733;28;20034;-41
2023/05/16 14:35:03;;;;;;;4.47;2.45;;;;;;;;;;5025769;28;20041;-42
2023/05/16 14:37:29;;;;;;;7.72;2.70;;;;;;;;;;5023496;28;20064;-47